North Hibbing, Minnesota
Current Conditions -  °F | °C
As of 10:37 AM on Monday 26 Jan 2015 (Local Time) from KHIB Reporting Station
Light Snow Light Snow  
Wind Chill: 24°   Ceiling: 1000
Heat Index: 24°   Visibility: 1.7mi
Dew Point: 20°   Wind: 3mph
Humidity: 84%   Direction: 170°S
Pressure: 29.62"   Gusts: NA
Location:  47.4158°N, 93.0053°W
Report Text: KHIB 261637Z AUTO 17003KT 1 3/4SM -SN BR OVC010 M04/M07 A2962 RMK AO2 P0000 T10441067
Loading
Personal Weather Stations






























Interactive Weather Map New forecast layout! Learn more

10-Day Weather Forecast

Advertisements
Track Severe Weather on mobile